Time,TemperatureF,DewpointF,PressureIn,WindDirection,WindDirectionDegrees,WindSpeedMPH,WindSpeedGustMPH,Humidity,HourlyPrecipIn,Conditions,Clouds,dailyrainin,SoftwareType,DateUTC
2013-05-13 00:02:00,61.0,47.0,29.96,SE,140,2.0,7.0,61,0.00,,,0.00,,2013-05-13 05:02:00,
2013-05-13 00:12:00,61.0,47.0,29.96,SE,140,2.0,7.0,61,0.00,,,0.00,,2013-05-13 05:12:00,
2013-05-13 00:21:00,60.0,47.0,29.96,SE,131,3.0,7.0,62,0.00,,,0.00,,2013-05-13 05:21:00,
2013-05-13 00:32:00,60.0,47.0,29.96,SSE,163,3.0,9.0,63,0.00,,,0.00,,2013-05-13 05:32:00,
2013-05-13 00:42:00,60.0,47.0,29.96,SSE,163,3.0,9.0,63,0.00,,,0.00,,2013-05-13 05:42:00,
2013-05-13 00:52:00,59.0,47.0,29.96,SE,138,1.0,4.0,65,0.00,,,0.00,,2013-05-13 05:52:00,
2013-05-13 01:01:00,58.0,47.0,29.96,ESE,123,2.0,6.0,66,0.00,,,0.00,,2013-05-13 06:01:00,
2013-05-13 01:11:00,58.0,47.0,29.96,ESE,123,2.0,6.0,66,0.00,,,0.00,,2013-05-13 06:11:00,
2013-05-13 01:21:00,57.0,46.0,29.96,South,171,2.0,7.0,67,0.00,,,0.00,,2013-05-13 06:21:00,
2013-05-13 01:31:00,57.0,47.0,29.96,ESE,119,2.0,5.0,68,0.00,,,0.00,,2013-05-13 06:31:00,
2013-05-13 01:42:00,57.0,47.0,29.96,ESE,119,2.0,5.0,68,0.00,,,0.00,,2013-05-13 06:42:00,
2013-05-13 01:52:00,57.0,47.0,29.96,SE,146,2.0,6.0,69,0.00,,,0.00,,2013-05-13 06:52:00,
2013-05-13 02:01:00,57.0,47.0,29.96,SE,136,0.0,3.0,69,0.00,,,0.00,,2013-05-13 07:01:00,
2013-05-13 02:11:00,57.0,47.0,29.96,SE,136,0.0,3.0,69,0.00,,,0.00,,2013-05-13 07:11:00,
2013-05-13 02:22:00,56.0,47.0,29.95,SE,128,0.0,3.0,72,0.00,,,0.00,,2013-05-13 07:22:00,
2013-05-13 02:31:00,56.0,47.0,29.95,SE,132,1.0,5.0,71,0.00,,,0.00,,2013-05-13 07:31:00,
2013-05-13 02:41:00,56.0,47.0,29.95,SE,132,1.0,5.0,71,0.00,,,0.00,,2013-05-13 07:41:00,
2013-05-13 02:52:00,56.0,47.0,29.95,SE,132,0.0,2.0,73,0.00,,,0.00,,2013-05-13 07:52:00,
2013-05-13 03:02:00,55.0,47.0,29.94,SE,132,0.0,1.0,74,0.00,,,0.00,,2013-05-13 08:02:00,
2013-05-13 03:11:00,55.0,47.0,29.94,SE,132,0.0,1.0,74,0.00,,,0.00,,2013-05-13 08:11:00,
2013-05-13 03:21:00,56.0,47.0,29.94,SSE,154,0.0,3.0,73,0.00,,,0.00,,2013-05-13 08:21:00,
2013-05-13 03:31:00,57.0,48.0,29.93,ESE,119,1.0,5.0,72,0.00,,,0.00,,2013-05-13 08:31:00,
2013-05-13 03:42:00,57.0,48.0,29.93,ESE,119,1.0,5.0,72,0.00,,,0.00,,2013-05-13 08:42:00,
2013-05-13 03:51:00,57.0,47.0,29.93,WSW,252,1.0,10.0,70,0.00,,,0.00,,2013-05-13 08:51:00,
2013-05-13 04:01:00,57.0,48.0,29.93,South,186,2.0,5.0,72,0.00,,,0.00,,2013-05-13 09:01:00,
2013-05-13 04:11:00,57.0,48.0,29.93,South,186,2.0,5.0,72,0.00,,,0.00,,2013-05-13 09:11:00,
2013-05-13 04:21:00,56.0,47.0,29.92,SE,126,0.0,3.0,73,0.00,,,0.00,,2013-05-13 09:21:00,
2013-05-13 04:33:00,55.0,47.0,29.92,SE,127,0.0,2.0,74,0.00,,,0.00,,2013-05-13 09:33:00,
2013-05-13 04:42:00,55.0,47.0,29.92,SE,127,0.0,2.0,74,0.00,,,0.00,,2013-05-13 09:42:00,
2013-05-13 04:52:00,55.0,48.0,29.92,SE,127,0.0,2.0,76,0.00,,,0.00,,2013-05-13 09:52:00,
2013-05-13 05:03:00,55.0,48.0,29.91,SE,126,0.0,2.0,76,0.00,,,0.00,,2013-05-13 10:03:00,
2013-05-13 05:12:00,55.0,48.0,29.91,SE,126,0.0,2.0,76,0.00,,,0.00,,2013-05-13 10:12:00,
2013-05-13 05:22:00,56.0,49.0,29.91,SSW,198,0.0,4.0,76,0.00,,,0.00,,2013-05-13 10:22:00,
2013-05-13 05:32:00,56.0,48.0,29.91,SSW,197,1.0,4.0,75,0.00,,,0.00,,2013-05-13 10:32:00,
2013-05-13 05:42:00,56.0,48.0,29.91,SSW,197,1.0,4.0,75,0.00,,,0.00,,2013-05-13 10:42:00,
2013-05-13 05:52:00,56.0,49.0,29.90,SSW,200,1.0,5.0,76,0.00,,,0.00,,2013-05-13 10:52:00,
2013-05-13 06:02:00,55.0,48.0,29.90,SSW,200,1.0,3.0,76,0.00,,,0.00,,2013-05-13 11:02:00,
2013-05-13 06:12:00,55.0,48.0,29.90,SSW,200,1.0,3.0,76,0.00,,,0.00,,2013-05-13 11:12:00,
2013-05-13 06:21:00,52.0,45.0,29.89,SSW,200,1.0,3.0,76,0.00,,,0.00,,2013-05-13 11:21:00,
2013-05-13 06:32:00,51.0,45.0,29.89,SSW,200,0.0,2.0,81,0.00,,,0.00,,2013-05-13 11:32:00,
2013-05-13 06:42:00,51.0,45.0,29.89,SSW,200,0.0,2.0,81,0.00,,,0.00,,2013-05-13 11:42:00,
2013-05-13 06:52:00,50.0,45.0,29.89,SSW,200,0.0,3.0,82,0.00,,,0.00,,2013-05-13 11:52:00,
2013-05-13 07:01:00,50.0,45.0,29.89,SSW,200,0.0,2.0,82,0.00,,,0.00,,2013-05-13 12:01:00,
2013-05-13 07:11:00,50.0,45.0,29.89,SSW,200,0.0,2.0,82,0.00,,,0.00,,2013-05-13 12:11:00,
2013-05-13 07:21:00,50.0,45.0,29.89,SSW,200,0.0,2.0,82,0.00,,,0.00,,2013-05-13 12:21:00,
2013-05-13 07:32:00,50.0,45.0,29.89,SSW,200,0.0,1.0,83,0.00,,,0.00,,2013-05-13 12:32:00,
2013-05-13 07:42:00,50.0,45.0,29.89,SSW,200,0.0,1.0,83,0.00,,,0.00,,2013-05-13 12:42:00,
2013-05-13 07:51:00,51.0,46.0,29.88,SSW,200,1.0,2.0,82,0.00,,,0.00,,2013-05-13 12:51:00,
2013-05-13 08:01:00,54.0,48.0,29.88,SSW,199,0.0,2.0,80,0.00,,,0.00,,2013-05-13 13:01:00,
2013-05-13 08:11:00,54.0,48.0,29.88,SSW,199,0.0,2.0,80,0.00,,,0.00,,2013-05-13 13:11:00,
2013-05-13 08:21:00,56.0,48.0,29.88,SE,144,0.0,2.0,74,0.00,,,0.00,,2013-05-13 13:21:00,
2013-05-13 08:31:00,59.0,49.0,29.88,East,82,0.0,3.0,69,0.00,,,0.00,,2013-05-13 13:31:00,
2013-05-13 08:42:00,59.0,49.0,29.88,East,82,0.0,3.0,69,0.00,,,0.00,,2013-05-13 13:42:00,
2013-05-13 08:52:00,61.0,49.0,29.88,East,82,1.0,3.0,65,0.00,,,0.00,,2013-05-13 13:52:00,
2013-05-13 09:02:00,67.0,47.0,29.87,SSE,148,2.0,8.0,49,0.00,,,0.00,,2013-05-13 14:02:00,
2013-05-13 09:11:00,67.0,47.0,29.87,SSE,148,2.0,8.0,49,0.00,,,0.00,,2013-05-13 14:11:00,
2013-05-13 09:22:00,69.0,48.0,29.87,WSW,240,4.0,8.0,47,0.00,,,0.00,,2013-05-13 14:22:00,
2013-05-13 09:32:00,68.0,48.0,29.87,SSW,212,7.0,15.0,48,0.00,,,0.00,,2013-05-13 14:32:00,
2013-05-13 09:41:00,68.0,48.0,29.87,SSW,212,7.0,15.0,48,0.00,,,0.00,,2013-05-13 14:41:00,
2013-05-13 09:51:00,68.0,48.0,29.88,WSW,242,5.0,10.0,49,0.00,,,0.00,,2013-05-13 14:51:00,
2013-05-13 10:01:00,69.0,48.0,29.87,West,265,6.0,10.0,47,0.00,,,0.00,,2013-05-13 15:01:00,
2013-05-13 10:11:00,69.0,48.0,29.87,West,265,6.0,10.0,47,0.00,,,0.00,,2013-05-13 15:11:00,
2013-05-13 10:21:00,70.0,48.0,29.87,WNW,284,6.0,9.0,46,0.00,,,0.00,,2013-05-13 15:21:00,
2013-05-13 10:31:00,71.0,49.0,29.87,WSW,246,5.0,9.0,45,0.00,,,0.00,,2013-05-13 15:31:00,
2013-05-13 10:42:00,71.0,49.0,29.87,WSW,246,5.0,9.0,45,0.00,,,0.00,,2013-05-13 15:42:00,
2013-05-13 10:53:00,72.0,49.0,29.87,WSW,241,5.0,9.0,44,0.00,,,0.00,,2013-05-13 15:53:00,
2013-05-13 11:03:00,73.0,48.0,29.86,SW,229,5.0,9.0,41,0.00,,,0.00,,2013-05-13 16:03:00,
2013-05-13 11:11:00,73.0,48.0,29.86,SW,229,5.0,9.0,41,0.00,,,0.00,,2013-05-13 16:11:00,
2013-05-13 11:21:00,74.0,49.0,29.86,West,260,4.0,9.0,41,0.00,,,0.00,,2013-05-13 16:21:00,
2013-05-13 11:33:00,75.0,49.0,29.86,WSW,252,3.0,9.0,40,0.00,,,0.00,,2013-05-13 16:33:00,
2013-05-13 11:42:00,76.0,50.0,29.86,WSW,240,2.0,7.0,40,0.00,,,0.00,,2013-05-13 16:42:00,
2013-05-13 11:52:00,76.0,50.0,29.86,WSW,240,2.0,7.0,40,0.00,,,0.00,,2013-05-13 16:52:00,
2013-05-13 12:02:00,77.0,49.0,29.85,West,263,2.0,6.0,38,0.00,,,0.00,,2013-05-13 17:02:00,
2013-05-13 12:12:00,77.0,49.0,29.85,West,263,2.0,6.0,38,0.00,,,0.00,,2013-05-13 17:12:00,
2013-05-13 12:21:00,78.0,48.0,29.85,WSW,244,3.0,7.0,35,0.00,,,0.00,,2013-05-13 17:21:00,
2013-05-13 12:32:00,80.0,49.0,29.85,West,269,3.0,8.0,34,0.00,,,0.00,,2013-05-13 17:32:00,
2013-05-13 12:42:00,80.0,49.0,29.85,West,269,3.0,8.0,34,0.00,,,0.00,,2013-05-13 17:42:00,
2013-05-13 12:54:00,81.0,50.0,29.84,SSW,201,2.0,7.0,34,0.00,,,0.00,,2013-05-13 17:54:00,
2013-05-13 13:03:00,83.0,49.0,29.83,SW,233,2.0,9.0,31,0.00,,,0.00,,2013-05-13 18:03:00,
2013-05-13 13:12:00,83.0,49.0,29.83,SW,233,2.0,9.0,31,0.00,,,0.00,,2013-05-13 18:12:00,
2013-05-13 13:23:00,85.0,51.0,29.83,SSW,203,3.0,7.0,31,0.00,,,0.00,,2013-05-13 18:23:00,
2013-05-13 13:32:00,86.0,48.0,29.83,WSW,246,4.0,8.0,27,0.00,,,0.00,,2013-05-13 18:32:00,
2013-05-13 13:42:00,88.0,49.0,29.82,WSW,248,4.0,12.0,26,0.00,,,0.00,,2013-05-13 18:42:00,
2013-05-13 13:51:00,88.0,49.0,29.82,WSW,248,4.0,12.0,26,0.00,,,0.00,,2013-05-13 18:51:00,
2013-05-13 14:01:00,88.0,48.0,29.81,SW,228,3.0,8.0,25,0.00,,,0.00,,2013-05-13 19:01:00,
2013-05-13 14:11:00,88.0,48.0,29.81,SW,228,3.0,8.0,25,0.00,,,0.00,,2013-05-13 19:11:00,
2013-05-13 14:21:00,89.0,45.0,29.81,WNW,295,3.0,10.0,22,0.00,,,0.00,,2013-05-13 19:21:00,
2013-05-13 14:32:00,90.0,43.0,29.80,WNW,284,5.0,10.0,20,0.00,,,0.00,,2013-05-13 19:32:00,
2013-05-13 14:44:00,90.0,43.0,29.80,WNW,284,5.0,10.0,20,0.00,,,0.00,,2013-05-13 19:44:00,
2013-05-13 14:53:00,91.0,43.0,29.80,NNE,13,4.0,10.0,19,0.00,,,0.00,,2013-05-13 19:53:00,
2013-05-13 15:01:00,90.0,41.0,29.80,WNW,303,6.0,10.0,18,0.00,,,0.00,,2013-05-13 20:01:00,
2013-05-13 15:11:00,90.0,41.0,29.80,WNW,303,6.0,10.0,18,0.00,,,0.00,,2013-05-13 20:11:00,
2013-05-13 15:23:00,91.0,39.0,29.79,West,274,5.0,11.0,16,0.00,,,0.00,,2013-05-13 20:23:00,
2013-05-13 15:33:00,92.0,39.0,29.78,North,9,3.0,7.0,16,0.00,,,0.00,,2013-05-13 20:33:00,
2013-05-13 15:44:00,92.0,39.0,29.78,North,9,3.0,7.0,16,0.00,,,0.00,,2013-05-13 20:44:00,
2013-05-13 15:53:00,92.0,42.0,29.78,NNE,26,4.0,8.0,18,0.00,,,0.00,,2013-05-13 20:53:00,
2013-05-13 16:03:00,92.0,41.0,29.78,SW,223,2.0,8.0,17,0.00,,,0.00,,2013-05-13 21:03:00,
2013-05-13 16:14:00,92.0,41.0,29.78,SW,223,2.0,8.0,17,0.00,,,0.00,,2013-05-13 21:14:00,
2013-05-13 16:23:00,93.0,42.0,29.77,West,264,3.0,8.0,17,0.00,,,0.00,,2013-05-13 21:23:00,
2013-05-13 16:33:00,93.0,42.0,29.77,WNW,299,3.0,16.0,17,0.00,,,0.00,,2013-05-13 21:33:00,
2013-05-13 16:43:00,93.0,42.0,29.77,WNW,299,3.0,16.0,17,0.00,,,0.00,,2013-05-13 21:43:00,
2013-05-13 16:53:00,92.0,42.0,29.77,North,355,4.0,11.0,18,0.00,,,0.00,,2013-05-13 21:53:00,
2013-05-13 17:02:00,92.0,42.0,29.76,North,5,5.0,9.0,18,0.00,,,0.00,,2013-05-13 22:02:00,
2013-05-13 17:12:00,92.0,42.0,29.76,North,5,5.0,9.0,18,0.00,,,0.00,,2013-05-13 22:12:00,
2013-05-13 17:23:00,92.0,42.0,29.76,NNE,20,3.0,6.0,18,0.00,,,0.00,,2013-05-13 22:23:00,
2013-05-13 17:32:00,93.0,42.0,29.75,NNE,22,1.0,6.0,17,0.00,,,0.00,,2013-05-13 22:32:00,
2013-05-13 17:42:00,92.0,41.0,29.75,NW,306,2.0,5.0,17,0.00,,,0.00,,2013-05-13 22:42:00,
2013-05-13 17:52:00,92.0,41.0,29.75,NW,306,2.0,5.0,17,0.00,,,0.00,,2013-05-13 22:52:00,
2013-05-13 18:02:00,93.0,42.0,29.75,WNW,296,4.0,11.0,17,0.00,,,0.00,,2013-05-13 23:02:00,
2013-05-13 18:12:00,93.0,42.0,29.75,WNW,296,4.0,11.0,17,0.00,,,0.00,,2013-05-13 23:12:00,
2013-05-13 18:23:00,92.0,41.0,29.75,North,355,4.0,7.0,17,0.00,,,0.00,,2013-05-13 23:23:00,
2013-05-13 18:33:00,91.0,43.0,29.75,NNE,23,1.0,5.0,19,0.00,,,0.00,,2013-05-13 23:33:00,
2013-05-13 18:42:00,91.0,43.0,29.75,NNE,23,1.0,5.0,19,0.00,,,0.00,,2013-05-13 23:42:00,
2013-05-13 18:53:00,91.0,44.0,29.75,WNW,297,1.0,3.0,20,0.00,,,0.00,,2013-05-13 23:53:00,
2013-05-13 19:02:00,90.0,41.0,29.74,SW,215,2.0,10.0,18,0.00,,,0.00,,2013-05-14 00:02:00,
2013-05-13 19:12:00,90.0,41.0,29.74,SW,215,2.0,10.0,18,0.00,,,0.00,,2013-05-14 00:12:00,
2013-05-13 19:22:00,90.0,39.0,29.73,SSW,209,0.0,1.0,17,0.00,,,0.00,,2013-05-14 00:22:00,
2013-05-13 19:31:00,91.0,42.0,29.73,SSW,213,0.0,2.0,18,0.00,,,0.00,,2013-05-14 00:31:00,
2013-05-13 19:41:00,91.0,42.0,29.73,SSW,213,0.0,2.0,18,0.00,,,0.00,,2013-05-14 00:41:00,
2013-05-13 19:51:00,91.0,40.0,29.73,SSW,213,0.0,0.0,17,0.00,,,0.00,,2013-05-14 00:51:00,
2013-05-13 20:01:00,91.0,43.0,29.73,SW,214,0.0,1.0,19,0.00,,,0.00,,2013-05-14 01:01:00,
2013-05-13 20:11:00,91.0,43.0,29.73,SW,214,0.0,1.0,19,0.00,,,0.00,,2013-05-14 01:11:00,
2013-05-13 20:21:00,91.0,43.0,29.73,SSW,213,0.0,2.0,19,0.00,,,0.00,,2013-05-14 01:21:00,
2013-05-13 20:32:00,89.0,41.0,29.73,SSW,204,0.0,4.0,19,0.00,,,0.00,,2013-05-14 01:32:00,
2013-05-13 20:43:00,89.0,41.0,29.73,SSW,204,0.0,4.0,19,0.00,,,0.00,,2013-05-14 01:43:00,
2013-05-13 20:52:00,89.0,44.0,29.73,SSW,204,0.0,3.0,21,0.00,,,0.00,,2013-05-14 01:52:00,
2013-05-13 21:02:00,87.0,46.0,29.73,SSW,204,0.0,1.0,24,0.00,,,0.00,,2013-05-14 02:02:00,
2013-05-13 21:11:00,87.0,46.0,29.73,SSW,204,0.0,1.0,24,0.00,,,0.00,,2013-05-14 02:11:00,
2013-05-13 21:22:00,85.0,47.0,29.73,SSW,204,0.0,1.0,27,0.00,,,0.00,,2013-05-14 02:22:00,
2013-05-13 21:32:00,82.0,52.0,29.72,SSW,204,0.0,1.0,35,0.00,,,0.00,,2013-05-14 02:32:00,
2013-05-13 21:42:00,82.0,52.0,29.72,SSW,204,0.0,1.0,35,0.00,,,0.00,,2013-05-14 02:42:00,
2013-05-13 21:52:00,80.0,50.0,29.72,SSW,204,0.0,1.0,35,0.00,,,0.00,,2013-05-14 02:52:00,
2013-05-13 22:01:00,78.0,50.0,29.73,SSW,204,0.0,2.0,37,0.00,,,0.00,,2013-05-14 03:01:00,
2013-05-13 22:11:00,78.0,50.0,29.73,SSW,204,0.0,2.0,37,0.00,,,0.00,,2013-05-14 03:11:00,
2013-05-13 22:21:00,76.0,52.0,29.72,SSW,204,0.0,1.0,43,0.00,,,0.00,,2013-05-14 03:21:00,
2013-05-13 22:33:00,75.0,52.0,29.73,SSW,204,0.0,1.0,45,0.00,,,0.00,,2013-05-14 03:33:00,
2013-05-13 22:42:00,75.0,52.0,29.73,SSW,204,0.0,1.0,45,0.00,,,0.00,,2013-05-14 03:42:00,
2013-05-13 22:52:00,74.0,51.0,29.73,SSW,204,0.0,0.0,44,0.00,,,0.00,,2013-05-14 03:52:00,
2013-05-13 23:02:00,74.0,47.0,29.73,South,178,1.0,5.0,38,0.00,,,0.00,,2013-05-14 04:02:00,
2013-05-13 23:13:00,74.0,47.0,29.73,South,178,1.0,5.0,38,0.00,,,0.00,,2013-05-14 04:13:00,
2013-05-13 23:23:00,76.0,46.0,29.72,SSW,194,3.0,7.0,34,0.00,,,0.00,,2013-05-14 04:23:00,
2013-05-13 23:32:00,76.0,47.0,29.73,SSW,198,0.0,6.0,36,0.00,,,0.00,,2013-05-14 04:32:00,
2013-05-13 23:43:00,76.0,47.0,29.73,SSW,198,0.0,6.0,36,0.00,,,0.00,,2013-05-14 04:43:00,
2013-05-13 23:52:00,74.0,47.0,29.72,SSW,207,0.0,2.0,39,0.00,,,0.00,,2013-05-14 04:52:00,